LDDU/DBV METAR and TAF weather

Enter ICAO airport designator
Station Type Date Time Source
LDDU METAR 2019/12/06 09:00 UTC NOAA

LDDU 060900Z 07004KT 050V110 9999 BKN056 13/07 Q1026 NOSIG


Station Type Date Time Source
LDDU Decoded METAR 2019/12/06 09:00 UTC NOAA

Dubrovnik / Cilipi, Croatia (LDDU) 42-34N 018-16E 165M
Dec 06, 2019 - 04:00 AM EST / 2019.12.06 0900 UTC
Wind: from the ENE (070 degrees) at 5 MPH (4 KT) (direction variable):0
Visibility: greater than 7 mile(s):0
Sky conditions: mostly cloudy
Temperature: 55 F (13 C)
Dew Point: 44 F (7 C)
Relative Humidity: 66%
Pressure (altimeter): 30.30 in. Hg (1026 hPa)
ob: LDDU 060900Z 07004KT 050V110 9999 BKN056 13/07 Q1026 NOSIG
cycle: 9

Station Type Date Time Source
LDDU TAF 2019/12/06 06:29 UTC NOAA

TAF LDDU 060525Z 0606/0706 08005KT 9999 BKN040 TX13/0611Z TN10/0605Z PROB40
TEMPO 0612/0706 RA BKN010
BECMG 0612/0614 12008KT PROB30
TEMPO 0621/0700 TSRA FEW020CB BKN025

Example: see airport list